Time;durP1;ratioP1;P1;durP2;ratioP2;P2;SDS_P1;SDS_P2;PMS_P1;PMS_P2;Temp;Humidity;BMP_temperature;BMP_pressure;BME280_temperature;BME280_humidity;BME280_pressure;Samples;Min_cycle;Max_cycle;Signal;HPM_P1;HPM_P2
2023/05/24 00:04:39;;;;;;;8.70;3.83;;;;;;;;;;10281959;28;20039;-52
2023/05/24 00:09:39;;;;;;;6.00;4.10;;;;;;;;;;10285749;28;20034;-54
2023/05/24 00:14:40;;;;;;;7.00;4.43;;;;;;;;;;10284158;28;20041;-51
2023/05/24 00:19:40;;;;;;;6.03;4.03;;;;;;;;;;10262492;28;20089;-55
2023/05/24 00:24:40;;;;;;;6.30;3.90;;;;;;;;;;10272974;28;20510;-52
2023/05/24 00:29:41;;;;;;;7.10;3.87;;;;;;;;;;10272046;28;20027;-54
2023/05/24 00:34:41;;;;;;;7.35;4.45;;;;;;;;;;10270037;28;20466;-53
2023/05/24 00:39:42;;;;;;;8.10;4.10;;;;;;;;;;10279678;28;20438;-54
2023/05/24 00:44:42;;;;;;;8.67;3.90;;;;;;;;;;10291447;28;20480;-52
2023/05/24 00:49:43;;;;;;;5.90;3.85;;;;;;;;;;10282512;28;20465;-52
2023/05/24 00:54:44;;;;;;;10.23;4.45;;;;;;;;;;10275170;28;21294;-53
2023/05/24 00:59:45;;;;;;;6.55;3.78;;;;;;;;;;10284067;28;20405;-51
2023/05/24 01:04:47;;;;;;;4.82;3.85;;;;;;;;;;10286546;28;20039;-54
2023/05/24 01:09:59;;;;;;;5.05;3.80;;;;;;;;;;10273198;28;20283;-51
2023/05/24 01:15:11;;;;;;;7.80;3.85;;;;;;;;;;10300320;28;20411;-48
2023/05/24 01:20:14;;;;;;;6.25;4.28;;;;;;;;;;10272042;28;20039;-54
2023/05/24 01:25:53;;;;;;;6.00;3.90;;;;;;;;;;10295096;28;20027;-50
2023/05/24 01:30:54;;;;;;;7.10;4.00;;;;;;;;;;10283823;28;20044;-50
2023/05/24 01:35:54;;;;;;;6.25;4.28;;;;;;;;;;10282449;28;20431;-54
2023/05/24 01:41:00;;;;;;;5.37;3.73;;;;;;;;;;10283373;28;20035;-54
2023/05/24 01:46:20;;;;;;;12.15;3.92;;;;;;;;;;10290785;28;20495;-61
2023/05/24 01:51:23;;;;;;;6.68;4.30;;;;;;;;;;10282473;28;20847;-63
2023/05/24 01:56:24;;;;;;;7.20;3.90;;;;;;;;;;10281196;28;20109;-62
2023/05/24 02:01:25;;;;;;;5.00;4.05;;;;;;;;;;10283646;28;20086;-62
2023/05/24 02:06:26;;;;;;;10.45;4.10;;;;;;;;;;10280413;28;20556;-65
2023/05/24 02:11:26;;;;;;;5.65;4.28;;;;;;;;;;10282197;28;20027;-64
2023/05/24 02:16:29;;;;;;;5.87;3.93;;;;;;;;;;10290955;28;20022;-61
2023/05/24 02:21:31;;;;;;;5.07;4.20;;;;;;;;;;10283451;28;21026;-61
2023/05/24 02:26:31;;;;;;;4.72;4.13;;;;;;;;;;10280006;28;20041;-63
2023/05/24 02:31:32;;;;;;;8.32;4.68;;;;;;;;;;10281628;28;20043;-63
2023/05/24 02:36:35;;;;;;;5.65;3.80;;;;;;;;;;10284796;28;20389;-60
2023/05/24 02:41:35;;;;;;;6.30;4.10;;;;;;;;;;10292232;28;20046;-49
2023/05/24 02:46:36;;;;;;;6.28;4.53;;;;;;;;;;10273926;28;20042;-47
2023/05/24 02:51:36;;;;;;;5.30;4.37;;;;;;;;;;10288277;28;20027;-49
2023/05/24 02:56:38;;;;;;;7.28;4.22;;;;;;;;;;10283328;28;20836;-49
2023/05/24 03:01:39;;;;;;;5.65;4.05;;;;;;;;;;10287423;28;20031;-49
2023/05/24 03:06:39;;;;;;;10.07;4.20;;;;;;;;;;10301956;28;20390;-52
2023/05/24 03:11:40;;;;;;;5.75;4.63;;;;;;;;;;10302303;28;20391;-53
2023/05/24 03:16:40;;;;;;;6.53;4.50;;;;;;;;;;10288755;28;20490;-48
2023/05/24 03:21:40;;;;;;;4.77;4.23;;;;;;;;;;10274180;28;20556;-51
2023/05/24 03:26:41;;;;;;;5.77;4.23;;;;;;;;;;10296483;28;20104;-50
2023/05/24 03:31:41;;;;;;;5.00;4.38;;;;;;;;;;10296172;28;20034;-48
2023/05/24 03:36:42;;;;;;;6.17;4.23;;;;;;;;;;10304328;28;20441;-50
2023/05/24 03:41:42;;;;;;;5.70;4.33;;;;;;;;;;10294943;28;20484;-51
2023/05/24 03:46:42;;;;;;;5.43;4.23;;;;;;;;;;10294004;28;20534;-50
2023/05/24 03:51:43;;;;;;;8.53;3.97;;;;;;;;;;10304726;28;20031;-50
2023/05/24 03:56:43;;;;;;;17.23;4.50;;;;;;;;;;10292249;28;20891;-51
2023/05/24 04:01:44;;;;;;;6.97;3.78;;;;;;;;;;10301203;28;20475;-49
2023/05/24 04:06:44;;;;;;;5.68;4.53;;;;;;;;;;10293661;28;20047;-51
2023/05/24 04:11:45;;;;;;;7.13;4.50;;;;;;;;;;10306270;28;20209;-50
2023/05/24 04:16:46;;;;;;;6.20;4.67;;;;;;;;;;10296462;28;20449;-50
2023/05/24 04:21:46;;;;;;;6.15;4.25;;;;;;;;;;10300795;28;20030;-52
2023/05/24 04:26:46;;;;;;;10.27;4.67;;;;;;;;;;10296031;28;20038;-51
2023/05/24 04:31:47;;;;;;;5.60;4.10;;;;;;;;;;10286170;28;20457;-50
2023/05/24 04:36:49;;;;;;;7.53;4.10;;;;;;;;;;10297460;28;20086;-49
2023/05/24 04:41:50;;;;;;;6.38;4.45;;;;;;;;;;10313798;28;20466;-49
2023/05/24 04:46:51;;;;;;;6.65;4.10;;;;;;;;;;10300921;28;20646;-51
2023/05/24 04:51:51;;;;;;;7.13;4.47;;;;;;;;;;10290217;28;20144;-47
2023/05/24 04:56:51;;;;;;;6.00;4.80;;;;;;;;;;10313186;28;20444;-50
2023/05/24 05:01:52;;;;;;;10.23;4.75;;;;;;;;;;10286298;28;20023;-61
2023/05/24 05:06:54;;;;;;;10.03;4.63;;;;;;;;;;10294986;28;20058;-55
2023/05/24 05:11:54;;;;;;;7.72;4.22;;;;;;;;;;10290558;28;21011;-51
2023/05/24 05:16:55;;;;;;;9.80;4.63;;;;;;;;;;10280895;28;20035;-53
2023/05/24 05:21:55;;;;;;;9.60;5.15;;;;;;;;;;10308296;28;20859;-62
2023/05/24 05:26:56;;;;;;;10.63;4.80;;;;;;;;;;10287275;28;20034;-54
2023/05/24 05:31:56;;;;;;;6.63;4.30;;;;;;;;;;10281100;28;21027;-54
2023/05/24 05:36:56;;;;;;;5.43;4.47;;;;;;;;;;10269437;28;20147;-55
2023/05/24 05:41:57;;;;;;;11.87;4.67;;;;;;;;;;10254402;28;20452;-54
2023/05/24 05:46:57;;;;;;;8.35;4.53;;;;;;;;;;10291245;28;20047;-50
2023/05/24 05:51:58;;;;;;;7.27;4.87;;;;;;;;;;10280798;28;20030;-51
2023/05/24 05:56:58;;;;;;;11.23;5.43;;;;;;;;;;10280469;28;20531;-48
2023/05/24 06:01:59;;;;;;;11.23;4.93;;;;;;;;;;10280733;28;20019;-52
2023/05/24 06:06:59;;;;;;;20.10;5.27;;;;;;;;;;10279141;28;20051;-60
2023/05/24 06:12:00;;;;;;;9.23;4.73;;;;;;;;;;10285653;28;20461;-59
2023/05/24 06:17:00;;;;;;;7.63;4.13;;;;;;;;;;10270279;28;20475;-59
2023/05/24 06:22:01;;;;;;;10.00;4.40;;;;;;;;;;10280882;28;20468;-60
2023/05/24 06:27:01;;;;;;;9.70;3.80;;;;;;;;;;10279312;28;20035;-65
2023/05/24 06:32:02;;;;;;;8.80;3.90;;;;;;;;;;10304280;28;20030;-59
2023/05/24 06:37:03;;;;;;;11.05;4.25;;;;;;;;;;10291646;28;20510;-66
2023/05/24 06:42:03;;;;;;;7.75;3.97;;;;;;;;;;10286768;28;20089;-62
2023/05/24 06:47:04;;;;;;;12.00;3.78;;;;;;;;;;10298740;28;20434;-59
2023/05/24 06:52:06;;;;;;;9.05;3.47;;;;;;;;;;10280394;28;20018;-59
2023/05/24 06:57:07;;;;;;;8.07;3.75;;;;;;;;;;10278553;28;20088;-59
2023/05/24 07:02:08;;;;;;;11.40;4.22;;;;;;;;;;10278923;28;20049;-59
2023/05/24 07:07:11;;;;;;;9.93;3.67;;;;;;;;;;10290374;28;20340;-60
2023/05/24 07:12:12;;;;;;;8.00;3.35;;;;;;;;;;10294532;28;20033;-60
2023/05/24 07:17:12;;;;;;;6.55;3.60;;;;;;;;;;10310775;28;20033;-60
2023/05/24 07:22:12;;;;;;;10.67;3.33;;;;;;;;;;10294473;28;20573;-60
2023/05/24 07:27:33;;;;;;;3.87;3.20;;;;;;;;;;10277125;28;20480;-60
2023/05/24 07:32:34;;;;;;;6.55;3.55;;;;;;;;;;10335957;28;20038;-60
2023/05/24 07:37:34;;;;;;;5.90;3.58;;;;;;;;;;10324085;28;20556;-60
2023/05/24 07:42:35;;;;;;;9.07;3.23;;;;;;;;;;10322921;28;20112;-60
2023/05/24 07:47:36;;;;;;;5.68;3.13;;;;;;;;;;10322989;28;20517;-59
2023/05/24 07:52:37;;;;;;;4.88;3.08;;;;;;;;;;10292706;28;20234;-59
2023/05/24 07:57:38;;;;;;;8.60;3.40;;;;;;;;;;10321536;28;20115;-59
2023/05/24 08:02:39;;;;;;;10.45;3.45;;;;;;;;;;10323518;28;20105;-59
2023/05/24 08:07:40;;;;;;;8.07;3.35;;;;;;;;;;10324299;28;20039;-67
2023/05/24 08:12:41;;;;;;;6.28;3.22;;;;;;;;;;10307265;28;20051;-60
2023/05/24 08:17:41;;;;;;;11.27;3.47;;;;;;;;;;10296502;28;20070;-59
2023/05/24 08:22:42;;;;;;;13.88;3.65;;;;;;;;;;10287939;28;20031;-59
2023/05/24 08:27:43;;;;;;;9.05;3.75;;;;;;;;;;10286133;28;20433;-64
2023/05/24 08:32:43;;;;;;;7.50;3.50;;;;;;;;;;10298658;28;20469;-60
2023/05/24 08:37:44;;;;;;;4.50;3.20;;;;;;;;;;10286095;28;20469;-59
2023/05/24 08:42:45;;;;;;;9.68;3.70;;;;;;;;;;10298588;28;20514;-59
2023/05/24 08:47:45;;;;;;;7.05;3.45;;;;;;;;;;10297259;28;20412;-60
2023/05/24 08:52:46;;;;;;;6.53;3.50;;;;;;;;;;10282543;28;20037;-60
2023/05/24 08:57:46;;;;;;;7.82;3.80;;;;;;;;;;10302720;28;20073;-59
2023/05/24 09:02:48;;;;;;;8.13;3.83;;;;;;;;;;10303551;28;20475;-59
2023/05/24 09:07:49;;;;;;;4.68;3.53;;;;;;;;;;10280835;28;20421;-59
2023/05/24 09:12:54;;;;;;;10.13;4.05;;;;;;;;;;10304294;28;20031;-59
2023/05/24 09:17:55;;;;;;;4.60;3.70;;;;;;;;;;10297654;28;20040;-59
2023/05/24 09:22:57;;;;;;;7.55;4.07;;;;;;;;;;10295893;28;20031;-60
2023/05/24 09:28:05;;;;;;;8.52;3.53;;;;;;;;;;10297191;28;20027;-60
2023/05/24 09:33:07;;;;;;;7.18;4.03;;;;;;;;;;10276983;28;20039;-60
2023/05/24 09:38:17;;;;;;;7.60;3.67;;;;;;;;;;10289162;28;20062;-59
2023/05/24 09:43:17;;;;;;;5.15;3.67;;;;;;;;;;10300332;28;20050;-59
2023/05/24 09:48:19;;;;;;;6.65;3.78;;;;;;;;;;10285211;28;20027;-59
2023/05/24 09:53:21;;;;;;;7.40;4.07;;;;;;;;;;10309158;28;20049;-59
2023/05/24 09:58:21;;;;;;;4.57;3.40;;;;;;;;;;10296691;28;20038;-59
2023/05/24 10:03:24;;;;;;;5.60;4.28;;;;;;;;;;10276484;28;20042;-59
2023/05/24 10:08:25;;;;;;;7.90;4.20;;;;;;;;;;10284080;28;20098;-59
2023/05/24 10:13:26;;;;;;;8.38;4.60;;;;;;;;;;10266632;28;20270;-59
2023/05/24 10:18:26;;;;;;;4.55;3.92;;;;;;;;;;10294628;28;20038;-59
2023/05/24 10:23:31;;;;;;;5.57;4.40;;;;;;;;;;10273306;28;20030;-59
2023/05/24 10:28:33;;;;;;;6.00;3.97;;;;;;;;;;10293700;28;20023;-59
2023/05/24 10:33:36;;;;;;;7.50;4.55;;;;;;;;;;10270770;28;20435;-66
2023/05/24 10:38:40;;;;;;;7.05;4.18;;;;;;;;;;10295548;28;20019;-59
2023/05/24 10:43:44;;;;;;;5.28;4.50;;;;;;;;;;10289939;28;20043;-59
2023/05/24 10:48:59;;;;;;;4.32;3.92;;;;;;;;;;10276940;28;20027;-59
2023/05/24 10:54:16;;;;;;;4.97;4.10;;;;;;;;;;10291974;28;20545;-59
2023/05/24 10:59:23;;;;;;;6.32;3.78;;;;;;;;;;10283432;28;20079;-59
2023/05/24 11:04:25;;;;;;;5.30;4.30;;;;;;;;;;10288786;28;20073;-59
2023/05/24 11:09:26;;;;;;;11.20;4.35;;;;;;;;;;10286472;28;20110;-59
2023/05/24 11:14:28;;;;;;;4.80;4.30;;;;;;;;;;10294405;28;20174;-59
2023/05/24 11:19:36;;;;;;;5.55;4.30;;;;;;;;;;10291558;28;20023;-60
2023/05/24 11:24:37;;;;;;;6.32;4.20;;;;;;;;;;10289136;28;20099;-60
2023/05/24 11:29:45;;;;;;;6.82;4.07;;;;;;;;;;10300115;28;20368;-59
2023/05/24 11:34:46;;;;;;;6.55;3.88;;;;;;;;;;10289303;28;20023;-59
2023/05/24 11:39:53;;;;;;;5.50;4.45;;;;;;;;;;10291854;28;20034;-59
2023/05/24 11:44:54;;;;;;;7.28;4.68;;;;;;;;;;10301449;28;21351;-59
2023/05/24 11:49:54;;;;;;;5.20;4.43;;;;;;;;;;10287616;28;20041;-60
2023/05/24 11:54:55;;;;;;;6.32;4.53;;;;;;;;;;10295910;28;20031;-59
2023/05/24 12:00:15;;;;;;;7.93;4.20;;;;;;;;;;10272674;28;20486;-59
2023/05/24 12:05:19;;;;;;;4.35;3.95;;;;;;;;;;10283587;28;20026;-59
2023/05/24 12:10:19;;;;;;;8.32;4.60;;;;;;;;;;10296924;28;20029;-60
2023/05/24 12:15:21;;;;;;;5.33;4.27;;;;;;;;;;10264502;28;20034;-59
2023/05/24 12:20:22;;;;;;;5.00;4.20;;;;;;;;;;10269828;28;21014;-60
2023/05/24 12:25:25;;;;;;;7.47;3.97;;;;;;;;;;10257125;28;20043;-59
2023/05/24 12:30:27;;;;;;;6.90;4.55;;;;;;;;;;10270752;28;20409;-59
2023/05/24 12:35:27;;;;;;;4.78;3.75;;;;;;;;;;10269610;28;20030;-59
2023/05/24 12:40:32;;;;;;;4.13;3.72;;;;;;;;;;10269979;28;20474;-59
2023/05/24 12:45:33;;;;;;;5.90;4.80;;;;;;;;;;10265703;28;20410;-60
2023/05/24 12:50:33;;;;;;;8.32;5.18;;;;;;;;;;10269407;28;20046;-59
2023/05/24 12:55:35;;;;;;;6.13;4.47;;;;;;;;;;10268781;28;20401;-60
2023/05/24 13:00:37;;;;;;;5.18;4.38;;;;;;;;;;10274533;28;21158;-59
2023/05/24 13:05:37;;;;;;;4.32;3.92;;;;;;;;;;10281507;28;20039;-59
2023/05/24 13:10:38;;;;;;;4.77;4.23;;;;;;;;;;10270841;28;20031;-60
2023/05/24 13:15:40;;;;;;;6.82;4.55;;;;;;;;;;10287141;28;20865;-59
2023/05/24 13:20:41;;;;;;;5.22;4.60;;;;;;;;;;10299785;28;20066;-60
2023/05/24 13:25:41;;;;;;;10.37;4.80;;;;;;;;;;10272484;28;20031;-59
2023/05/24 13:30:42;;;;;;;6.15;5.15;;;;;;;;;;10283521;28;20469;-60
2023/05/24 13:35:42;;;;;;;11.97;6.90;;;;;;;;;;10288816;28;20041;-60
2023/05/24 13:40:44;;;;;;;9.80;6.10;;;;;;;;;;10278458;28;20828;-59
2023/05/24 13:45:44;;;;;;;9.25;7.38;;;;;;;;;;10295426;28;20495;-59
2023/05/24 13:50:45;;;;;;;10.20;7.40;;;;;;;;;;10292392;28;20118;-59
2023/05/24 13:55:45;;;;;;;10.70;7.53;;;;;;;;;;10262320;28;21058;-59
2023/05/24 14:00:46;;;;;;;12.30;8.70;;;;;;;;;;10283755;28;20526;-59
2023/05/24 14:05:47;;;;;;;10.65;9.10;;;;;;;;;;10275281;28;20416;-59
2023/05/24 14:10:48;;;;;;;10.68;7.97;;;;;;;;;;10275159;28;20036;-59
2023/05/24 14:15:49;;;;;;;10.40;7.80;;;;;;;;;;10316010;28;20054;-59
2023/05/24 14:20:50;;;;;;;12.65;8.05;;;;;;;;;;10284658;28;20102;-59
2023/05/24 14:25:53;;;;;;;11.25;8.35;;;;;;;;;;10259420;28;20089;-59
2023/05/24 14:30:53;;;;;;;10.45;7.65;;;;;;;;;;10286569;28;20033;-59
2023/05/24 14:35:54;;;;;;;11.07;7.73;;;;;;;;;;10264589;28;20467;-59
2023/05/24 14:40:55;;;;;;;9.80;6.72;;;;;;;;;;10280763;28;20454;-59
2023/05/24 14:45:56;;;;;;;10.27;6.90;;;;;;;;;;10272232;28;20122;-60
2023/05/24 14:50:56;;;;;;;7.68;6.63;;;;;;;;;;10291742;28;20050;-59
2023/05/24 14:55:57;;;;;;;8.60;6.55;;;;;;;;;;10288822;28;20019;-59
2023/05/24 15:00:57;;;;;;;7.90;5.90;;;;;;;;;;10301902;28;20041;-59
2023/05/24 15:05:58;;;;;;;7.20;5.73;;;;;;;;;;10290622;28;20034;-59
2023/05/24 15:10:58;;;;;;;8.02;5.63;;;;;;;;;;10301221;28;20449;-59
2023/05/24 15:15:59;;;;;;;9.37;5.77;;;;;;;;;;10285694;28;20046;-60
2023/05/24 15:20:59;;;;;;;8.00;5.35;;;;;;;;;;10270933;28;20448;-61
2023/05/24 15:26:00;;;;;;;6.57;5.35;;;;;;;;;;10275588;28;20082;-60
2023/05/24 15:31:02;;;;;;;7.22;5.22;;;;;;;;;;10300018;28;20027;-60
2023/05/24 15:36:03;;;;;;;6.63;4.80;;;;;;;;;;10279332;28;20023;-60
2023/05/24 15:41:04;;;;;;;7.68;4.97;;;;;;;;;;10270767;28;20034;-63
2023/05/24 15:46:04;;;;;;;8.10;5.07;;;;;;;;;;10300890;28;20042;-60
2023/05/24 15:51:06;;;;;;;7.53;4.78;;;;;;;;;;10277282;28;20020;-59
2023/05/24 15:56:07;;;;;;;7.53;5.15;;;;;;;;;;10299645;28;20505;-59
2023/05/24 16:01:08;;;;;;;6.45;5.03;;;;;;;;;;10301395;28;20106;-64
2023/05/24 16:06:08;;;;;;;8.10;5.10;;;;;;;;;;10268785;28;20397;-61
2023/05/24 16:11:09;;;;;;;5.27;4.60;;;;;;;;;;10282544;28;20453;-60
2023/05/24 16:16:10;;;;;;;5.97;4.65;;;;;;;;;;10295990;28;20464;-59
2023/05/24 16:21:11;;;;;;;8.45;5.20;;;;;;;;;;10291102;28;21578;-60
2023/05/24 16:26:12;;;;;;;5.88;4.95;;;;;;;;;;10277046;28;21151;-62
2023/05/24 16:31:14;;;;;;;7.00;5.53;;;;;;;;;;10284458;28;20421;-63
2023/05/24 16:36:15;;;;;;;8.98;6.28;;;;;;;;;;10282015;28;20042;-56
2023/05/24 16:41:15;;;;;;;10.35;6.57;;;;;;;;;;10273005;28;20038;-56
2023/05/24 16:46:16;;;;;;;13.93;6.43;;;;;;;;;;10289343;28;20043;-51
2023/05/24 16:51:16;;;;;;;14.63;5.97;;;;;;;;;;10285120;28;20472;-56
2023/05/24 16:56:17;;;;;;;7.93;5.57;;;;;;;;;;10283888;28;20471;-53
2023/05/24 17:01:17;;;;;;;8.77;5.38;;;;;;;;;;10300267;28;20031;-57
2023/05/24 17:06:17;;;;;;;8.83;5.50;;;;;;;;;;10277172;28;20281;-56
2023/05/24 17:11:18;;;;;;;8.23;5.50;;;;;;;;;;10294174;28;20526;-53
2023/05/24 17:16:19;;;;;;;8.90;5.80;;;;;;;;;;10286423;28;20025;-57
2023/05/24 17:21:20;;;;;;;8.75;5.22;;;;;;;;;;10267684;28;20034;-53
2023/05/24 17:26:21;;;;;;;6.75;4.80;;;;;;;;;;10267187;28;20023;-54
2023/05/24 17:31:22;;;;;;;10.15;4.85;;;;;;;;;;10287729;28;20474;-57
2023/05/24 17:36:22;;;;;;;8.38;4.90;;;;;;;;;;10289178;28;21404;-57
2023/05/24 17:41:23;;;;;;;6.27;4.20;;;;;;;;;;10309234;28;20035;-57
2023/05/24 17:46:24;;;;;;;5.35;4.85;;;;;;;;;;10290679;28;20916;-58
2023/05/24 17:51:24;;;;;;;9.30;4.68;;;;;;;;;;10271463;28;20041;-55
2023/05/24 17:56:26;;;;;;;7.00;4.50;;;;;;;;;;10283717;28;20019;-57
2023/05/24 18:01:27;;;;;;;5.60;4.20;;;;;;;;;;10275814;28;20390;-58
2023/05/24 18:06:28;;;;;;;5.15;4.22;;;;;;;;;;10284541;28;20423;-55
2023/05/24 18:11:28;;;;;;;5.30;3.87;;;;;;;;;;10283711;28;20030;-57
2023/05/24 18:16:30;;;;;;;5.28;4.70;;;;;;;;;;10296261;28;20476;-54
2023/05/24 18:21:31;;;;;;;5.78;4.40;;;;;;;;;;10282475;28;20457;-56
2023/05/24 18:26:31;;;;;;;6.63;4.13;;;;;;;;;;10293048;28;20129;-54
2023/05/24 18:31:32;;;;;;;6.63;4.27;;;;;;;;;;10294958;28;20029;-56
2023/05/24 18:36:32;;;;;;;6.00;4.20;;;;;;;;;;10306578;28;20445;-56
2023/05/24 18:41:32;;;;;;;6.67;4.10;;;;;;;;;;10295135;28;20459;-53
2023/05/24 18:46:33;;;;;;;7.60;4.10;;;;;;;;;;10292841;28;21033;-56
2023/05/24 18:51:33;;;;;;;4.22;3.80;;;;;;;;;;10270922;28;20464;-55
2023/05/24 18:56:34;;;;;;;6.70;4.05;;;;;;;;;;10273006;28;20034;-54
2023/05/24 19:01:35;;;;;;;5.53;4.53;;;;;;;;;;10286353;28;20078;-55
2023/05/24 19:06:36;;;;;;;4.95;3.70;;;;;;;;;;10279452;28;20037;-50
2023/05/24 19:11:36;;;;;;;5.82;3.80;;;;;;;;;;10281063;28;20034;-54
2023/05/24 19:16:36;;;;;;;4.07;3.65;;;;;;;;;;10299899;28;20023;-52
2023/05/24 19:21:37;;;;;;;4.90;3.97;;;;;;;;;;10301168;28;20418;-56
2023/05/24 19:26:37;;;;;;;6.97;4.20;;;;;;;;;;10279110;28;20479;-57
2023/05/24 19:31:38;;;;;;;5.07;3.87;;;;;;;;;;10298948;28;20376;-57
2023/05/24 19:36:39;;;;;;;6.23;3.97;;;;;;;;;;10305944;28;20488;-58
2023/05/24 19:41:40;;;;;;;7.22;4.28;;;;;;;;;;10285276;28;20471;-57
2023/05/24 19:46:43;;;;;;;5.53;4.25;;;;;;;;;;10401370;23;20053;-65
2023/05/24 19:51:45;;;;;;;9.15;4.20;;;;;;;;;;10407260;28;20056;-67
2023/05/24 19:56:49;;;;;;;8.82;4.47;;;;;;;;;;10417733;28;20033;-68
2023/05/24 20:01:50;;;;;;;7.95;4.47;;;;;;;;;;10403667;28;20033;-64
2023/05/24 20:06:51;;;;;;;8.02;4.57;;;;;;;;;;10380164;28;20048;-67
2023/05/24 20:11:52;;;;;;;8.18;3.95;;;;;;;;;;10395214;28;20027;-67
2023/05/24 20:16:52;;;;;;;8.55;4.70;;;;;;;;;;10394580;28;20041;-65
2023/05/24 20:21:53;;;;;;;6.40;4.55;;;;;;;;;;10406142;28;20071;-66
2023/05/24 20:26:53;;;;;;;6.97;4.50;;;;;;;;;;10412379;28;20040;-66
2023/05/24 20:31:54;;;;;;;10.90;4.90;;;;;;;;;;10403998;28;20029;-67
2023/05/24 20:36:54;;;;;;;7.35;4.95;;;;;;;;;;10408722;28;20033;-64
2023/05/24 20:41:55;;;;;;;6.43;4.37;;;;;;;;;;10401553;28;20029;-67
2023/05/24 20:46:56;;;;;;;5.60;4.20;;;;;;;;;;10475607;28;20508;-68
2023/05/24 20:52:03;;;;;;;5.53;4.47;;;;;;;;;;10487831;28;20028;-67
2023/05/24 20:57:10;;;;;;;8.80;4.78;;;;;;;;;;10466762;28;20457;-66
2023/05/24 21:02:10;;;;;;;5.82;4.80;;;;;;;;;;10479507;28;20032;-66
2023/05/24 21:07:10;;;;;;;6.43;4.78;;;;;;;;;;10472733;28;20024;-68
2023/05/24 21:12:11;;;;;;;8.20;5.40;;;;;;;;;;10492676;28;20029;-71
2023/05/24 21:17:12;;;;;;;5.82;4.68;;;;;;;;;;10488137;28;20453;-67
2023/05/24 21:22:12;;;;;;;8.67;5.53;;;;;;;;;;10485199;28;20025;-70
2023/05/24 21:27:13;;;;;;;8.20;5.40;;;;;;;;;;10468662;28;20465;-68
2023/05/24 21:32:13;;;;;;;5.20;4.45;;;;;;;;;;10486567;28;20043;-71
2023/05/24 21:37:15;;;;;;;11.20;5.53;;;;;;;;;;10478507;28;20023;-71
2023/05/24 21:42:15;;;;;;;7.63;5.45;;;;;;;;;;10475775;28;21063;-68
2023/05/24 21:47:16;;;;;;;10.20;4.57;;;;;;;;;;10481920;28;20093;-69
2023/05/24 21:52:16;;;;;;;7.38;5.10;;;;;;;;;;10482114;28;20475;-70
2023/05/24 21:57:16;;;;;;;5.15;4.68;;;;;;;;;;10480803;28;20371;-68
2023/05/24 22:02:17;;;;;;;6.10;4.50;;;;;;;;;;10481587;28;20017;-69
2023/05/24 22:07:18;;;;;;;7.05;5.07;;;;;;;;;;10477981;28;20994;-69
2023/05/24 22:12:18;;;;;;;5.67;4.63;;;;;;;;;;10480121;28;20021;-70
2023/05/24 22:17:20;;;;;;;14.40;5.23;;;;;;;;;;10482345;28;20507;-70
2023/05/24 22:22:21;;;;;;;10.50;4.75;;;;;;;;;;10459588;28;20478;-70
2023/05/24 22:27:22;;;;;;;6.28;4.65;;;;;;;;;;10461635;28;20112;-70
2023/05/24 22:32:22;;;;;;;7.35;5.03;;;;;;;;;;10454084;28;20021;-71
2023/05/24 22:37:23;;;;;;;5.65;4.93;;;;;;;;;;10440340;28;20499;-70
2023/05/24 22:42:23;;;;;;;7.75;4.82;;;;;;;;;;10464351;28;20025;-70
2023/05/24 22:47:25;;;;;;;5.30;4.77;;;;;;;;;;10477093;28;20454;-70
2023/05/24 22:52:26;;;;;;;9.35;4.85;;;;;;;;;;10485926;28;20476;-72
2023/05/24 22:57:26;;;;;;;6.40;4.57;;;;;;;;;;10488285;28;20024;-71
2023/05/24 23:02:27;;;;;;;5.55;4.03;;;;;;;;;;10493513;28;20016;-73
2023/05/24 23:07:28;;;;;;;6.55;4.53;;;;;;;;;;10497181;28;20465;-71
2023/05/24 23:12:29;;;;;;;7.53;4.88;;;;;;;;;;10496777;28;20044;-72
2023/05/24 23:17:29;;;;;;;7.57;3.67;;;;;;;;;;10496248;28;20421;-71
2023/05/24 23:22:30;;;;;;;4.60;3.75;;;;;;;;;;10496607;28;20024;-70
2023/05/24 23:27:30;;;;;;;10.45;4.22;;;;;;;;;;10494869;28;20506;-71
2023/05/24 23:32:31;;;;;;;4.97;4.07;;;;;;;;;;10495246;28;20524;-71
2023/05/24 23:37:31;;;;;;;6.53;4.20;;;;;;;;;;10495291;28;20599;-68
2023/05/24 23:42:32;;;;;;;5.57;4.30;;;;;;;;;;10495370;28;20824;-68
2023/05/24 23:47:32;;;;;;;5.80;3.67;;;;;;;;;;10495652;28;20458;-69
2023/05/24 23:52:34;;;;;;;5.37;4.40;;;;;;;;;;10494674;28;20027;-73
2023/05/24 23:57:34;;;;;;;7.32;3.78;;;;;;;;;;10494834;28;20434;-70
